createdAt,value
2023-02-12T00:31:11.126Z,103031.78
2023-02-12T00:34:59.881Z,103026.67
2023-02-12T00:39:08.345Z,103020.84
2023-02-12T00:43:10.053Z,103020.98
2023-02-12T00:47:08.969Z,103022.54
2023-02-12T00:51:10.333Z,103033.19
2023-02-12T00:55:11.829Z,103043.11
2023-02-12T00:59:13.262Z,103047.61
2023-02-12T01:03:13.708Z,103049.67
2023-02-12T01:06:50.656Z,103049.09
2023-02-12T03:22:08.888Z,103163.88
2023-02-12T03:25:24.344Z,103158.16
2023-02-12T03:29:12.938Z,103159.63
2023-02-12T03:33:20.448Z,103168.63
2023-02-12T03:37:29.265Z,103170.78
2023-02-12T03:41:38.250Z,103175.38
2023-02-12T03:45:32.400Z,103181.56
2023-02-12T03:56:52.993Z,103190.36
2023-02-12T04:00:10.357Z,103193.39
2023-02-12T04:07:09.815Z,103204.35
2023-02-12T04:10:29.191Z,103209.48
2023-02-12T04:13:59.220Z,103210.40
2023-02-12T04:17:38.999Z,103219.92
2023-02-12T04:21:39.801Z,103227.87
2023-02-12T04:25:54.932Z,103230.36
2023-02-12T04:29:50.271Z,103237.38
2023-02-12T04:33:48.967Z,103236.52
2023-02-12T04:38:00.561Z,103237.20
2023-02-12T04:41:44.147Z,103240.56
2023-02-12T04:45:04.075Z,103243.21
2023-02-12T05:09:18.502Z,103242.86
2023-02-12T05:12:18.461Z,103248.83
2023-02-12T05:16:08.262Z,103254.15
2023-02-12T05:20:06.729Z,103254.33
2023-02-12T05:23:38.188Z,103257.34
2023-02-12T05:27:46.876Z,103258.75
2023-02-12T05:31:03.906Z,103257.17
2023-02-12T05:35:12.791Z,103256.33
2023-02-12T05:38:55.449Z,103259.67
2023-02-12T05:42:40.757Z,103266.17
2023-02-12T05:45:53.990Z,103273.21
2023-02-12T05:49:54.021Z,103274.27
2023-02-12T05:54:02.824Z,103273.04
2023-02-12T05:58:11.395Z,103273.61
2023-02-12T06:02:20.153Z,103272.39
2023-02-12T06:05:56.817Z,103273.09
2023-02-12T06:09:28.368Z,103279.06
2023-02-12T06:13:25.888Z,103289.77
2023-02-12T06:17:06.202Z,103295.39
2023-02-12T06:19:55.836Z,103298.21
2023-02-12T06:23:26.332Z,103299.27
2023-02-12T06:27:18.361Z,103299.98
2023-02-12T06:30:34.290Z,103305.43
2023-02-12T06:34:28.187Z,103308.42
2023-02-12T06:38:09.176Z,103313.88
2023-02-12T06:42:17.917Z,103312.14
2023-02-12T06:45:49.530Z,103307.75
2023-02-12T06:49:40.934Z,103308.82
2023-02-12T06:53:10.532Z,103308.84
2023-02-12T06:56:54.480Z,103318.52
2023-02-12T07:00:33.799Z,103326.06
2023-02-12T07:04:24.793Z,103329.05
2023-02-12T07:07:45.335Z,103331.90
2023-02-12T07:11:53.978Z,103330.17
2023-02-12T07:15:01.819Z,103334.59
2023-02-12T07:17:57.352Z,103337.59
2023-02-12T07:20:44.630Z,103338.48
2023-02-12T07:24:31.658Z,103338.52
2023-02-12T07:28:31.227Z,103339.09
2023-02-12T07:32:19.569Z,103343.04
2023-02-12T07:35:42.690Z,103351.15
2023-02-12T07:39:07.012Z,103356.27
2023-02-12T07:43:16.348Z,103360.55
2023-02-12T07:46:47.829Z,103357.62
2023-02-12T07:50:00.572Z,103355.20
2023-02-12T07:54:09.544Z,103361.41
2023-02-12T07:57:10.337Z,103363.74
2023-02-12T08:55:12.704Z,103410.01
2023-02-12T08:59:09.165Z,103414.42
2023-02-12T09:02:46.470Z,103410.02
2023-02-12T09:06:35.278Z,103410.05
2023-02-12T09:10:21.571Z,103411.80
2023-02-12T09:14:10.668Z,103408.66
2023-02-12T09:18:00.703Z,103415.01
2023-02-12T09:21:34.925Z,103412.72
2023-02-12T09:24:50.473Z,103416.96
2023-02-12T09:28:28.479Z,103421.55
2023-02-12T09:32:11.366Z,103421.55
2023-02-12T09:36:03.218Z,103427.91
2023-02-12T09:40:00.125Z,103429.84
2023-02-12T09:43:54.280Z,103432.30
2023-02-12T09:50:46.349Z,103436.52
2023-02-12T09:58:38.615Z,103441.98
2023-02-12T10:02:42.377Z,103445.69
2023-02-12T10:06:59.681Z,103445.69
2023-02-12T10:10:52.944Z,103437.59
2023-02-12T10:14:14.610Z,103436.71
2023-02-12T10:18:23.578Z,103431.26
2023-02-12T10:22:10.044Z,103434.77
2023-02-12T10:25:21.557Z,103430.05
2023-02-12T10:28:39.470Z,103430.23
2023-02-12T10:32:10.220Z,103431.46
2023-02-12T10:35:59.300Z,103434.11
2023-02-12T10:39:56.774Z,103431.98
2023-02-12T10:43:10.626Z,103430.23
2023-02-12T10:46:57.674Z,103427.76
2023-02-12T10:50:38.189Z,103429.87
2023-02-12T10:53:58.107Z,103425.64
2023-02-12T10:57:45.710Z,103425.64
2023-02-12T11:01:15.920Z,103426.52
2023-02-12T11:05:24.648Z,103419.11
2023-02-12T11:13:23.682Z,103412.94
2023-02-12T11:16:48.231Z,103415.41
2023-02-12T11:19:32.693Z,103411.70
2023-02-12T11:26:30.366Z,103402.01
2023-02-12T11:30:02.348Z,103394.95
2023-02-12T11:41:03.255Z,103395.12
2023-02-12T11:44:49.194Z,103392.99
2023-02-12T11:48:58.569Z,103393.17
2023-02-12T11:52:16.323Z,103388.77
2023-02-12T11:55:14.275Z,103390.70
2023-02-12T11:58:35.347Z,103388.21
2023-02-12T12:01:55.313Z,103382.73
2023-02-12T12:05:06.470Z,103382.37
2023-02-12T12:09:15.512Z,103381.47
2023-02-12T12:13:04.141Z,103387.09
2023-02-12T12:16:32.286Z,103389.55
2023-02-12T12:20:10.623Z,103386.34
2023-02-12T12:23:28.561Z,103384.02
2023-02-12T12:27:37.491Z,103380.99
2023-02-12T12:31:46.339Z,103374.47
2023-02-12T12:35:04.721Z,103375.56
2023-02-12T12:38:39.665Z,103380.70
2023-02-12T12:42:01.113Z,103376.66
2023-02-12T12:46:01.950Z,103368.92
2023-02-12T12:49:52.511Z,103367.49
2023-02-12T12:53:53.257Z,103373.15
2023-02-12T13:02:40.291Z,103368.59
2023-02-12T13:06:30.982Z,103370.73
2023-02-12T13:10:12.385Z,103366.14
2023-02-12T13:13:57.834Z,103362.06
2023-02-12T13:52:47.953Z,103331.98
2023-02-12T13:56:44.365Z,103331.44
2023-02-12T14:01:11.456Z,103331.77
2023-02-12T14:05:34.795Z,103329.08
2023-02-12T14:24:30.724Z,103333.44
2023-02-12T14:28:07.448Z,103335.22
2023-02-12T14:32:19.080Z,103337.00
2023-02-12T14:36:18.849Z,103336.67
2023-02-12T14:40:17.196Z,103340.91
2023-02-12T14:44:21.748Z,103338.80
2023-02-12T14:48:21.736Z,103340.24
2023-02-12T14:52:29.790Z,103342.38
2023-02-12T14:56:02.267Z,103337.98
2023-02-12T14:59:49.519Z,103342.04
2023-02-12T15:03:43.764Z,103340.11
2023-02-12T15:07:22.855Z,103345.92
2023-02-12T15:11:36.062Z,103346.45
2023-02-12T15:15:37.723Z,103340.98
2023-02-12T15:19:46.537Z,103344.70
2023-02-12T15:24:10.027Z,103348.96
2023-02-12T15:28:05.716Z,103357.65
2023-02-12T15:31:52.370Z,103361.23
2023-02-12T15:35:29.509Z,103364.92
2023-02-12T15:39:35.396Z,103360.67
2023-02-12T15:43:35.210Z,103358.74
2023-02-12T15:48:02.092Z,103352.39
2023-02-12T15:59:22.471Z,103354.70
2023-02-12T16:43:07.176Z,103380.49
2023-02-12T16:47:18.931Z,103380.14
2023-02-12T16:51:36.818Z,103378.20
2023-02-12T16:54:21.213Z,103376.79
2023-02-12T16:58:39.172Z,103384.36
2023-02-12T17:20:06.517Z,103394.24
2023-02-12T17:24:16.361Z,103393.89
2023-02-12T17:28:26.957Z,103398.64
2023-02-12T17:32:37.075Z,103400.58
2023-02-12T17:52:51.818Z,103408.70
2023-02-12T17:57:02.389Z,103410.10
2023-02-12T18:01:12.306Z,103411.88
2023-02-12T18:05:23.374Z,103418.57
2023-02-12T18:09:22.864Z,103419.80
2023-02-12T18:17:14.409Z,103415.92
2023-02-12T18:21:19.585Z,103412.77
2023-02-12T18:25:23.680Z,103411.54
2023-02-12T18:29:33.089Z,103414.55
2023-02-12T18:33:35.537Z,103416.48
2023-02-12T18:37:45.870Z,103417.36
2023-02-12T18:46:14.909Z,103412.95
2023-02-12T18:49:54.205Z,103415.06
2023-02-12T19:15:11.314Z,103406.59
2023-02-12T19:19:21.226Z,103406.08
2023-02-12T19:23:33.127Z,103401.14
2023-02-12T19:27:44.393Z,103401.14
2023-02-12T19:31:53.695Z,103398.67
2023-02-12T19:36:03.208Z,103404.14
2023-02-12T19:40:10.805Z,103407.85
2023-02-12T19:44:00.310Z,103410.66
2023-02-12T20:09:19.881Z,103418.75
2023-02-12T20:13:47.897Z,103418.06
2023-02-12T20:18:01.453Z,103420.52
2023-02-12T20:22:18.651Z,103420.36
2023-02-12T20:26:23.091Z,103416.65
2023-02-12T20:34:08.431Z,103408.71
2023-02-12T20:38:17.107Z,103408.35
2023-02-12T20:42:14.511Z,103410.13
2023-02-12T20:46:26.974Z,103412.42
2023-02-12T20:50:36.553Z,103409.96
2023-02-12T20:54:47.706Z,103403.26
2023-02-12T20:58:59.149Z,103408.51
2023-02-12T22:10:48.165Z,103394.41
2023-02-12T22:14:33.423Z,103390.01
2023-02-12T22:18:33.794Z,103386.13
2023-02-12T22:22:35.520Z,103384.36
2023-02-12T22:26:44.313Z,103390.70
2023-02-12T22:42:15.780Z,103394.23
2023-02-12T22:46:24.569Z,103391.61
2023-02-12T22:50:33.101Z,103395.13
2023-02-12T22:54:41.605Z,103394.08
2023-02-12T22:58:42.981Z,103389.14
2023-02-12T23:02:52.859Z,103385.60
2023-02-12T23:07:01.527Z,103385.42
2023-02-12T23:35:15.804Z,103387.36
2023-02-12T23:39:24.634Z,103387.55
2023-02-12T23:43:33.520Z,103389.48
2023-02-12T23:47:42.312Z,103391.25
2023-02-12T23:51:50.728Z,103399.15
2023-02-12T23:55:50.536Z,103401.45
2023-02-12T23:59:57.658Z,103398.98
